sensor_id;sensor_type;location;lat;lon;timestamp;P1;durP1;ratioP1;P2;durP2;ratioP2
69502;SDS011;56704;54.242;12.442;2022-07-04T00:01:59;4.85;;;2.70;;
69502;SDS011;56704;54.242;12.442;2022-07-04T00:04:26;6.25;;;2.58;;
69502;SDS011;56704;54.242;12.442;2022-07-04T00:06:54;5.00;;;2.95;;
69502;SDS011;56704;54.242;12.442;2022-07-04T00:09:20;5.43;;;2.80;;
69502;SDS011;56704;54.242;12.442;2022-07-04T00:11:47;4.60;;;2.88;;
69502;SDS011;56704;54.242;12.442;2022-07-04T00:14:13;6.72;;;3.03;;
69502;SDS011;56704;54.242;12.442;2022-07-04T00:16:40;5.90;;;3.30;;
69502;SDS011;56704;54.242;12.442;2022-07-04T00:19:07;7.28;;;3.80;;
69502;SDS011;56704;54.242;12.442;2022-07-04T00:21:33;4.97;;;3.37;;
69502;SDS011;56704;54.242;12.442;2022-07-04T00:24:01;6.55;;;3.15;;
69502;SDS011;56704;54.242;12.442;2022-07-04T00:26:28;6.10;;;3.00;;
69502;SDS011;56704;54.242;12.442;2022-07-04T00:28:54;6.15;;;2.97;;
69502;SDS011;56704;54.242;12.442;2022-07-04T00:31:21;5.28;;;2.92;;
69502;SDS011;56704;54.242;12.442;2022-07-04T00:33:47;6.30;;;2.90;;
69502;SDS011;56704;54.242;12.442;2022-07-04T00:36:14;5.88;;;2.70;;
69502;SDS011;56704;54.242;12.442;2022-07-04T00:38:40;5.88;;;3.25;;
69502;SDS011;56704;54.242;12.442;2022-07-04T00:41:08;5.32;;;3.00;;
69502;SDS011;56704;54.242;12.442;2022-07-04T00:43:35;4.90;;;3.20;;
69502;SDS011;56704;54.242;12.442;2022-07-04T00:46:03;6.60;;;3.20;;
69502;SDS011;56704;54.242;12.442;2022-07-04T00:48:30;4.70;;;3.08;;
69502;SDS011;56704;54.242;12.442;2022-07-04T00:50:57;6.47;;;2.70;;
69502;SDS011;56704;54.242;12.442;2022-07-04T00:53:24;8.30;;;3.40;;
69502;SDS011;56704;54.242;12.442;2022-07-04T00:55:51;6.40;;;2.85;;
69502;SDS011;56704;54.242;12.442;2022-07-04T00:58:21;5.07;;;2.63;;
69502;SDS011;56704;54.242;12.442;2022-07-04T01:00:48;7.47;;;2.88;;
69502;SDS011;56704;54.242;12.442;2022-07-04T01:03:15;5.63;;;3.10;;
69502;SDS011;56704;54.242;12.442;2022-07-04T01:05:42;8.13;;;3.90;;
69502;SDS011;56704;54.242;12.442;2022-07-04T01:08:10;7.95;;;4.13;;
69502;SDS011;56704;54.242;12.442;2022-07-04T01:10:37;9.60;;;3.80;;
69502;SDS011;56704;54.242;12.442;2022-07-04T01:13:04;5.35;;;3.15;;
69502;SDS011;56704;54.242;12.442;2022-07-04T01:15:31;7.00;;;3.38;;
69502;SDS011;56704;54.242;12.442;2022-07-04T01:17:58;7.65;;;3.65;;
69502;SDS011;56704;54.242;12.442;2022-07-04T01:20:26;5.45;;;2.88;;
69502;SDS011;56704;54.242;12.442;2022-07-04T01:22:58;6.83;;;3.30;;
69502;SDS011;56704;54.242;12.442;2022-07-04T01:25:25;5.80;;;3.20;;
69502;SDS011;56704;54.242;12.442;2022-07-04T01:27:53;3.90;;;2.50;;
69502;SDS011;56704;54.242;12.442;2022-07-04T01:30:20;5.63;;;2.65;;
69502;SDS011;56704;54.242;12.442;2022-07-04T01:32:47;4.63;;;2.88;;
69502;SDS011;56704;54.242;12.442;2022-07-04T01:35:13;6.90;;;3.60;;
69502;SDS011;56704;54.242;12.442;2022-07-04T01:37:44;9.82;;;4.07;;
69502;SDS011;56704;54.242;12.442;2022-07-04T01:40:10;5.43;;;3.35;;
69502;SDS011;56704;54.242;12.442;2022-07-04T01:42:38;6.30;;;3.47;;
69502;SDS011;56704;54.242;12.442;2022-07-04T01:45:05;7.32;;;3.47;;
69502;SDS011;56704;54.242;12.442;2022-07-04T01:47:32;9.40;;;4.03;;
69502;SDS011;56704;54.242;12.442;2022-07-04T01:50:00;10.50;;;4.07;;
69502;SDS011;56704;54.242;12.442;2022-07-04T01:52:26;8.60;;;4.10;;
69502;SDS011;56704;54.242;12.442;2022-07-04T01:54:54;7.32;;;3.65;;
69502;SDS011;56704;54.242;12.442;2022-07-04T01:57:20;8.77;;;4.38;;
69502;SDS011;56704;54.242;12.442;2022-07-04T01:59:47;7.50;;;4.43;;
69502;SDS011;56704;54.242;12.442;2022-07-04T02:02:31;9.15;;;4.03;;
69502;SDS011;56704;54.242;12.442;2022-07-04T02:04:58;7.40;;;4.05;;
69502;SDS011;56704;54.242;12.442;2022-07-04T02:07:24;10.15;;;3.42;;
69502;SDS011;56704;54.242;12.442;2022-07-04T02:09:51;6.80;;;3.03;;
69502;SDS011;56704;54.242;12.442;2022-07-04T02:12:19;5.57;;;3.23;;
69502;SDS011;56704;54.242;12.442;2022-07-04T02:15:03;6.60;;;3.17;;
69502;SDS011;56704;54.242;12.442;2022-07-04T02:17:30;5.90;;;2.10;;
69502;SDS011;56704;54.242;12.442;2022-07-04T02:19:57;5.63;;;2.08;;
69502;SDS011;56704;54.242;12.442;2022-07-04T02:22:23;8.40;;;3.00;;
69502;SDS011;56704;54.242;12.442;2022-07-04T02:24:50;9.07;;;2.90;;
69502;SDS011;56704;54.242;12.442;2022-07-04T02:27:17;6.88;;;3.13;;
69502;SDS011;56704;54.242;12.442;2022-07-04T02:29:45;7.93;;;2.80;;
69502;SDS011;56704;54.242;12.442;2022-07-04T02:32:12;4.03;;;1.85;;
69502;SDS011;56704;54.242;12.442;2022-07-04T02:34:38;6.22;;;2.08;;
69502;SDS011;56704;54.242;12.442;2022-07-04T02:37:05;5.30;;;1.90;;
69502;SDS011;56704;54.242;12.442;2022-07-04T02:39:32;6.82;;;2.85;;
69502;SDS011;56704;54.242;12.442;2022-07-04T02:41:58;7.60;;;2.50;;
69502;SDS011;56704;54.242;12.442;2022-07-04T02:44:26;5.50;;;2.22;;
69502;SDS011;56704;54.242;12.442;2022-07-04T02:46:53;6.13;;;1.80;;
69502;SDS011;56704;54.242;12.442;2022-07-04T02:49:19;5.73;;;2.03;;
69502;SDS011;56704;54.242;12.442;2022-07-04T02:51:46;6.18;;;2.00;;
69502;SDS011;56704;54.242;12.442;2022-07-04T02:54:13;5.65;;;1.77;;
69502;SDS011;56704;54.242;12.442;2022-07-04T02:56:39;4.53;;;1.70;;
69502;SDS011;56704;54.242;12.442;2022-07-04T02:59:06;5.57;;;1.80;;
69502;SDS011;56704;54.242;12.442;2022-07-04T03:01:34;3.73;;;1.63;;
69502;SDS011;56704;54.242;12.442;2022-07-04T03:04:01;3.75;;;1.60;;
69502;SDS011;56704;54.242;12.442;2022-07-04T03:06:29;4.68;;;1.50;;
69502;SDS011;56704;54.242;12.442;2022-07-04T03:08:56;4.38;;;1.40;;
69502;SDS011;56704;54.242;12.442;2022-07-04T03:11:22;3.10;;;1.30;;
69502;SDS011;56704;54.242;12.442;2022-07-04T03:13:49;3.47;;;1.20;;
69502;SDS011;56704;54.242;12.442;2022-07-04T03:16:16;3.72;;;1.50;;
69502;SDS011;56704;54.242;12.442;2022-07-04T03:18:44;3.92;;;1.05;;
69502;SDS011;56704;54.242;12.442;2022-07-04T03:21:10;4.43;;;1.30;;
69502;SDS011;56704;54.242;12.442;2022-07-04T03:23:37;4.97;;;1.92;;
69502;SDS011;56704;54.242;12.442;2022-07-04T03:26:03;4.80;;;1.57;;
69502;SDS011;56704;54.242;12.442;2022-07-04T03:28:30;3.90;;;1.20;;
69502;SDS011;56704;54.242;12.442;2022-07-04T03:30:56;5.97;;;1.35;;
69502;SDS011;56704;54.242;12.442;2022-07-04T03:33:25;4.43;;;1.13;;
69502;SDS011;56704;54.242;12.442;2022-07-04T03:35:54;4.63;;;1.20;;
69502;SDS011;56704;54.242;12.442;2022-07-04T03:38:20;6.43;;;1.33;;
69502;SDS011;56704;54.242;12.442;2022-07-04T03:40:47;4.97;;;1.30;;
69502;SDS011;56704;54.242;12.442;2022-07-04T03:43:13;4.53;;;1.30;;
69502;SDS011;56704;54.242;12.442;2022-07-04T03:45:40;6.22;;;1.73;;
69502;SDS011;56704;54.242;12.442;2022-07-04T03:48:06;3.58;;;1.15;;
69502;SDS011;56704;54.242;12.442;2022-07-04T03:50:34;4.97;;;1.33;;
69502;SDS011;56704;54.242;12.442;2022-07-04T03:53:02;3.83;;;1.63;;
69502;SDS011;56704;54.242;12.442;2022-07-04T03:55:29;5.03;;;1.60;;
69502;SDS011;56704;54.242;12.442;2022-07-04T03:57:55;4.75;;;1.38;;
69502;SDS011;56704;54.242;12.442;2022-07-04T04:00:22;5.03;;;1.60;;
69502;SDS011;56704;54.242;12.442;2022-07-04T04:02:48;5.10;;;1.60;;
69502;SDS011;56704;54.242;12.442;2022-07-04T04:05:15;6.32;;;1.77;;
69502;SDS011;56704;54.242;12.442;2022-07-04T04:07:55;6.20;;;1.92;;
69502;SDS011;56704;54.242;12.442;2022-07-04T04:10:24;5.35;;;1.70;;
69502;SDS011;56704;54.242;12.442;2022-07-04T04:12:52;4.80;;;1.98;;
69502;SDS011;56704;54.242;12.442;2022-07-04T04:15:18;5.60;;;1.90;;
69502;SDS011;56704;54.242;12.442;2022-07-04T04:17:45;5.28;;;1.85;;
69502;SDS011;56704;54.242;12.442;2022-07-04T04:20:11;4.38;;;1.45;;
69502;SDS011;56704;54.242;12.442;2022-07-04T04:22:38;5.22;;;1.90;;
69502;SDS011;56704;54.242;12.442;2022-07-04T04:25:05;4.95;;;1.70;;
69502;SDS011;56704;54.242;12.442;2022-07-04T04:27:33;9.63;;;2.20;;
69502;SDS011;56704;54.242;12.442;2022-07-04T04:30:00;4.82;;;1.45;;
69502;SDS011;56704;54.242;12.442;2022-07-04T04:32:26;4.28;;;1.52;;
69502;SDS011;56704;54.242;12.442;2022-07-04T04:34:53;6.97;;;1.92;;
69502;SDS011;56704;54.242;12.442;2022-07-04T04:37:20;3.92;;;1.38;;
69502;SDS011;56704;54.242;12.442;2022-07-04T04:39:46;3.47;;;1.10;;
69502;SDS011;56704;54.242;12.442;2022-07-04T04:42:13;8.95;;;2.10;;
69502;SDS011;56704;54.242;12.442;2022-07-04T04:44:41;4.85;;;1.80;;
69502;SDS011;56704;54.242;12.442;2022-07-04T04:47:08;5.38;;;2.00;;
69502;SDS011;56704;54.242;12.442;2022-07-04T04:49:34;4.65;;;1.42;;
69502;SDS011;56704;54.242;12.442;2022-07-04T04:52:01;5.37;;;1.60;;
69502;SDS011;56704;54.242;12.442;2022-07-04T04:54:28;6.43;;;1.52;;
69502;SDS011;56704;54.242;12.442;2022-07-04T04:56:54;6.10;;;1.25;;
69502;SDS011;56704;54.242;12.442;2022-07-04T04:59:21;11.90;;;1.30;;
69502;SDS011;56704;54.242;12.442;2022-07-04T05:01:49;5.65;;;1.25;;
69502;SDS011;56704;54.242;12.442;2022-07-04T05:04:15;6.13;;;1.50;;
69502;SDS011;56704;54.242;12.442;2022-07-04T05:06:42;4.25;;;0.77;;
69502;SDS011;56704;54.242;12.442;2022-07-04T05:09:08;4.55;;;1.60;;
69502;SDS011;56704;54.242;12.442;2022-07-04T05:11:35;7.78;;;1.50;;
69502;SDS011;56704;54.242;12.442;2022-07-04T05:14:02;2.95;;;0.85;;
69502;SDS011;56704;54.242;12.442;2022-07-04T05:16:28;5.13;;;1.10;;
69502;SDS011;56704;54.242;12.442;2022-07-04T05:18:56;5.30;;;1.40;;
69502;SDS011;56704;54.242;12.442;2022-07-04T05:21:23;7.88;;;1.50;;
69502;SDS011;56704;54.242;12.442;2022-07-04T05:23:51;5.28;;;1.48;;
69502;SDS011;56704;54.242;12.442;2022-07-04T05:26:18;3.10;;;1.02;;
69502;SDS011;56704;54.242;12.442;2022-07-04T05:28:44;3.17;;;0.97;;
69502;SDS011;56704;54.242;12.442;2022-07-04T05:31:11;3.65;;;1.08;;
69502;SDS011;56704;54.242;12.442;2022-07-04T05:33:37;5.32;;;1.63;;
69502;SDS011;56704;54.242;12.442;2022-07-04T05:36:06;3.58;;;1.17;;
69502;SDS011;56704;54.242;12.442;2022-07-04T05:38:32;5.25;;;1.70;;
69502;SDS011;56704;54.242;12.442;2022-07-04T05:41:00;5.63;;;1.30;;
69502;SDS011;56704;54.242;12.442;2022-07-04T05:43:27;4.32;;;1.05;;
69502;SDS011;56704;54.242;12.442;2022-07-04T05:45:53;5.15;;;1.30;;
69502;SDS011;56704;54.242;12.442;2022-07-04T05:48:20;6.18;;;1.50;;
69502;SDS011;56704;54.242;12.442;2022-07-04T05:50:46;5.38;;;1.45;;
69502;SDS011;56704;54.242;12.442;2022-07-04T05:53:14;6.07;;;1.50;;
69502;SDS011;56704;54.242;12.442;2022-07-04T05:55:41;5.20;;;1.02;;
69502;SDS011;56704;54.242;12.442;2022-07-04T05:58:07;6.18;;;1.40;;
69502;SDS011;56704;54.242;12.442;2022-07-04T06:00:34;3.65;;;0.82;;
69502;SDS011;56704;54.242;12.442;2022-07-04T06:03:01;6.55;;;1.38;;
69502;SDS011;56704;54.242;12.442;2022-07-04T06:05:28;7.40;;;1.60;;
69502;SDS011;56704;54.242;12.442;2022-07-04T06:07:54;4.53;;;1.20;;
69502;SDS011;56704;54.242;12.442;2022-07-04T06:10:23;4.15;;;1.10;;
69502;SDS011;56704;54.242;12.442;2022-07-04T06:12:49;5.15;;;1.35;;
69502;SDS011;56704;54.242;12.442;2022-07-04T06:15:17;3.60;;;1.10;;
69502;SDS011;56704;54.242;12.442;2022-07-04T06:17:43;3.97;;;1.00;;
69502;SDS011;56704;54.242;12.442;2022-07-04T06:20:10;2.83;;;0.50;;
69502;SDS011;56704;54.242;12.442;2022-07-04T06:22:40;4.65;;;1.20;;
69502;SDS011;56704;54.242;12.442;2022-07-04T06:25:10;3.08;;;0.75;;
69502;SDS011;56704;54.242;12.442;2022-07-04T06:27:38;2.47;;;0.65;;
69502;SDS011;56704;54.242;12.442;2022-07-04T06:30:06;3.60;;;0.67;;
69502;SDS011;56704;54.242;12.442;2022-07-04T06:32:40;4.03;;;0.70;;
69502;SDS011;56704;54.242;12.442;2022-07-04T06:35:08;5.03;;;0.80;;
69502;SDS011;56704;54.242;12.442;2022-07-04T06:37:52;3.70;;;0.60;;
69502;SDS011;56704;54.242;12.442;2022-07-04T06:40:19;2.88;;;0.80;;
69502;SDS011;56704;54.242;12.442;2022-07-04T06:42:47;3.30;;;0.50;;
69502;SDS011;56704;54.242;12.442;2022-07-04T06:45:13;1.67;;;0.52;;
69502;SDS011;56704;54.242;12.442;2022-07-04T06:47:40;1.98;;;0.40;;
69502;SDS011;56704;54.242;12.442;2022-07-04T06:50:07;4.28;;;0.80;;
69502;SDS011;56704;54.242;12.442;2022-07-04T06:52:34;6.18;;;0.85;;
69502;SDS011;56704;54.242;12.442;2022-07-04T06:55:01;2.73;;;0.50;;
69502;SDS011;56704;54.242;12.442;2022-07-04T06:57:28;3.60;;;0.40;;
69502;SDS011;56704;54.242;12.442;2022-07-04T06:59:56;3.22;;;0.57;;
69502;SDS011;56704;54.242;12.442;2022-07-04T07:02:22;2.22;;;0.50;;
69502;SDS011;56704;54.242;12.442;2022-07-04T07:04:49;2.33;;;0.60;;
69502;SDS011;56704;54.242;12.442;2022-07-04T07:07:16;2.73;;;0.60;;
69502;SDS011;56704;54.242;12.442;2022-07-04T07:09:42;3.47;;;0.77;;
69502;SDS011;56704;54.242;12.442;2022-07-04T07:12:09;4.15;;;0.88;;
69502;SDS011;56704;54.242;12.442;2022-07-04T07:14:35;1.23;;;0.40;;
69502;SDS011;56704;54.242;12.442;2022-07-04T07:17:03;5.72;;;0.95;;
69502;SDS011;56704;54.242;12.442;2022-07-04T07:19:30;4.53;;;0.60;;
69502;SDS011;56704;54.242;12.442;2022-07-04T07:21:56;2.53;;;0.90;;
69502;SDS011;56704;54.242;12.442;2022-07-04T07:24:23;2.72;;;0.63;;
69502;SDS011;56704;54.242;12.442;2022-07-04T07:26:51;3.50;;;0.77;;
69502;SDS011;56704;54.242;12.442;2022-07-04T07:29:17;3.33;;;0.50;;
69502;SDS011;56704;54.242;12.442;2022-07-04T07:31:44;2.93;;;0.67;;
69502;SDS011;56704;54.242;12.442;2022-07-04T07:34:12;3.45;;;0.60;;
69502;SDS011;56704;54.242;12.442;2022-07-04T07:36:39;1.40;;;0.50;;
69502;SDS011;56704;54.242;12.442;2022-07-04T07:39:06;1.73;;;0.55;;
69502;SDS011;56704;54.242;12.442;2022-07-04T07:41:32;5.50;;;0.90;;
69502;SDS011;56704;54.242;12.442;2022-07-04T07:43:59;2.27;;;0.70;;
69502;SDS011;56704;54.242;12.442;2022-07-04T07:46:25;3.72;;;0.55;;
69502;SDS011;56704;54.242;12.442;2022-07-04T07:48:52;3.10;;;0.60;;
69502;SDS011;56704;54.242;12.442;2022-07-04T07:51:19;3.53;;;0.70;;
69502;SDS011;56704;54.242;12.442;2022-07-04T07:53:46;5.25;;;0.70;;
69502;SDS011;56704;54.242;12.442;2022-07-04T07:56:12;2.17;;;0.60;;
69502;SDS011;56704;54.242;12.442;2022-07-04T07:58:39;2.55;;;0.70;;
69502;SDS011;56704;54.242;12.442;2022-07-04T08:01:06;2.38;;;0.50;;
69502;SDS011;56704;54.242;12.442;2022-07-04T08:03:32;4.00;;;0.47;;
69502;SDS011;56704;54.242;12.442;2022-07-04T08:06:16;1.35;;;0.38;;
69502;SDS011;56704;54.242;12.442;2022-07-04T08:08:44;2.33;;;0.50;;
69502;SDS011;56704;54.242;12.442;2022-07-04T08:11:11;2.47;;;0.50;;
69502;SDS011;56704;54.242;12.442;2022-07-04T08:13:38;3.35;;;0.50;;
69502;SDS011;56704;54.242;12.442;2022-07-04T08:16:05;2.08;;;0.63;;
69502;SDS011;56704;54.242;12.442;2022-07-04T08:18:32;1.65;;;0.30;;
69502;SDS011;56704;54.242;12.442;2022-07-04T08:21:00;3.57;;;0.80;;
69502;SDS011;56704;54.242;12.442;2022-07-04T08:23:26;3.30;;;0.70;;
69502;SDS011;56704;54.242;12.442;2022-07-04T08:25:55;2.15;;;0.60;;
69502;SDS011;56704;54.242;12.442;2022-07-04T08:28:22;2.67;;;0.50;;
69502;SDS011;56704;54.242;12.442;2022-07-04T08:30:48;2.30;;;0.50;;
69502;SDS011;56704;54.242;12.442;2022-07-04T08:33:15;2.30;;;0.43;;
69502;SDS011;56704;54.242;12.442;2022-07-04T08:35:41;2.17;;;0.47;;
69502;SDS011;56704;54.242;12.442;2022-07-04T08:38:08;1.67;;;0.50;;
69502;SDS011;56704;54.242;12.442;2022-07-04T08:40:34;3.55;;;0.60;;
69502;SDS011;56704;54.242;12.442;2022-07-04T08:43:02;2.88;;;0.50;;
69502;SDS011;56704;54.242;12.442;2022-07-04T08:45:30;3.73;;;0.60;;
69502;SDS011;56704;54.242;12.442;2022-07-04T08:47:59;4.18;;;0.52;;
69502;SDS011;56704;54.242;12.442;2022-07-04T08:50:29;3.33;;;0.50;;
69502;SDS011;56704;54.242;12.442;2022-07-04T08:52:58;2.55;;;0.40;;
69502;SDS011;56704;54.242;12.442;2022-07-04T08:55:26;2.67;;;0.50;;
69502;SDS011;56704;54.242;12.442;2022-07-04T08:58:13;2.73;;;0.60;;
69502;SDS011;56704;54.242;12.442;2022-07-04T09:00:52;2.15;;;0.25;;
69502;SDS011;56704;54.242;12.442;2022-07-04T09:03:19;2.20;;;0.50;;
69502;SDS011;56704;54.242;12.442;2022-07-04T09:05:46;2.08;;;0.43;;
69502;SDS011;56704;54.242;12.442;2022-07-04T09:08:13;2.20;;;0.38;;
69502;SDS011;56704;54.242;12.442;2022-07-04T09:10:40;3.67;;;0.40;;
69502;SDS011;56704;54.242;12.442;2022-07-04T09:13:07;2.63;;;0.60;;
69502;SDS011;56704;54.242;12.442;2022-07-04T09:15:36;2.80;;;0.40;;
69502;SDS011;56704;54.242;12.442;2022-07-04T09:18:03;1.77;;;0.30;;
69502;SDS011;56704;54.242;12.442;2022-07-04T09:20:31;4.68;;;0.63;;
69502;SDS011;56704;54.242;12.442;2022-07-04T09:22:59;2.07;;;0.30;;
69502;SDS011;56704;54.242;12.442;2022-07-04T09:25:25;2.05;;;0.30;;
69502;SDS011;56704;54.242;12.442;2022-07-04T09:27:53;2.15;;;0.50;;
69502;SDS011;56704;54.242;12.442;2022-07-04T09:30:21;2.15;;;0.50;;
69502;SDS011;56704;54.242;12.442;2022-07-04T09:32:51;1.92;;;0.40;;
69502;SDS011;56704;54.242;12.442;2022-07-04T09:35:25;1.77;;;0.60;;
69502;SDS011;56704;54.242;12.442;2022-07-04T09:37:53;3.78;;;0.50;;
69502;SDS011;56704;54.242;12.442;2022-07-04T09:40:21;2.97;;;0.52;;
69502;SDS011;56704;54.242;12.442;2022-07-04T09:42:49;2.42;;;0.50;;
69502;SDS011;56704;54.242;12.442;2022-07-04T09:45:16;2.78;;;0.63;;
69502;SDS011;56704;54.242;12.442;2022-07-04T09:47:45;1.57;;;0.33;;
69502;SDS011;56704;54.242;12.442;2022-07-04T09:50:14;1.90;;;0.30;;
69502;SDS011;56704;54.242;12.442;2022-07-04T09:52:44;3.40;;;0.70;;
69502;SDS011;56704;54.242;12.442;2022-07-04T09:55:19;3.20;;;0.50;;
69502;SDS011;56704;54.242;12.442;2022-07-04T09:57:48;3.05;;;0.40;;
69502;SDS011;56704;54.242;12.442;2022-07-04T10:00:19;1.43;;;0.30;;
69502;SDS011;56704;54.242;12.442;2022-07-04T10:02:46;2.38;;;0.60;;
69502;SDS011;56704;54.242;12.442;2022-07-04T10:05:18;3.38;;;0.40;;
69502;SDS011;56704;54.242;12.442;2022-07-04T10:07:46;2.83;;;0.90;;
69502;SDS011;56704;54.242;12.442;2022-07-04T10:10:21;3.20;;;0.50;;
69502;SDS011;56704;54.242;12.442;2022-07-04T10:12:52;2.73;;;0.30;;
69502;SDS011;56704;54.242;12.442;2022-07-04T10:15:20;4.57;;;0.55;;
69502;SDS011;56704;54.242;12.442;2022-07-04T10:17:47;2.72;;;0.52;;
69502;SDS011;56704;54.242;12.442;2022-07-04T10:20:13;3.80;;;0.40;;
69502;SDS011;56704;54.242;12.442;2022-07-04T10:22:41;2.25;;;0.57;;
69502;SDS011;56704;54.242;12.442;2022-07-04T10:25:09;1.80;;;0.43;;
69502;SDS011;56704;54.242;12.442;2022-07-04T10:27:36;1.67;;;0.40;;
69502;SDS011;56704;54.242;12.442;2022-07-04T10:30:04;0.95;;;0.32;;
69502;SDS011;56704;54.242;12.442;2022-07-04T10:32:32;2.53;;;0.40;;
69502;SDS011;56704;54.242;12.442;2022-07-04T10:34:59;2.65;;;0.47;;
69502;SDS011;56704;54.242;12.442;2022-07-04T10:40:41;2.30;;;0.43;;
69502;SDS011;56704;54.242;12.442;2022-07-04T10:46:42;3.17;;;0.47;;
69502;SDS011;56704;54.242;12.442;2022-07-04T10:49:18;2.45;;;0.70;;
69502;SDS011;56704;54.242;12.442;2022-07-04T10:51:46;4.33;;;0.50;;
69502;SDS011;56704;54.242;12.442;2022-07-04T10:54:15;1.70;;;0.30;;
69502;SDS011;56704;54.242;12.442;2022-07-04T10:56:44;3.38;;;0.68;;
69502;SDS011;56704;54.242;12.442;2022-07-04T10:59:13;6.15;;;0.57;;
69502;SDS011;56704;54.242;12.442;2022-07-04T11:01:50;1.48;;;0.47;;
69502;SDS011;56704;54.242;12.442;2022-07-04T11:10:24;4.40;;;2.13;;
69502;SDS011;56704;54.242;12.442;2022-07-04T11:13:05;6.78;;;2.60;;
69502;SDS011;56704;54.242;12.442;2022-07-04T11:15:58;6.25;;;0.60;;
69502;SDS011;56704;54.242;12.442;2022-07-04T11:18:27;5.57;;;0.83;;
69502;SDS011;56704;54.242;12.442;2022-07-04T11:20:54;3.03;;;0.95;;
69502;SDS011;56704;54.242;12.442;2022-07-04T11:23:21;3.33;;;0.65;;
69502;SDS011;56704;54.242;12.442;2022-07-04T11:25:51;2.50;;;0.57;;
69502;SDS011;56704;54.242;12.442;2022-07-04T11:28:19;2.38;;;0.60;;
69502;SDS011;56704;54.242;12.442;2022-07-04T11:30:50;1.47;;;0.40;;
69502;SDS011;56704;54.242;12.442;2022-07-04T11:33:18;1.55;;;0.40;;
69502;SDS011;56704;54.242;12.442;2022-07-04T11:38:42;2.67;;;0.50;;
69502;SDS011;56704;54.242;12.442;2022-07-04T11:41:14;2.17;;;0.55;;
69502;SDS011;56704;54.242;12.442;2022-07-04T11:44:01;3.27;;;0.50;;
69502;SDS011;56704;54.242;12.442;2022-07-04T11:46:46;1.90;;;0.50;;
69502;SDS011;56704;54.242;12.442;2022-07-04T11:49:13;3.47;;;0.60;;
69502;SDS011;56704;54.242;12.442;2022-07-04T11:51:43;1.85;;;0.57;;
69502;SDS011;56704;54.242;12.442;2022-07-04T11:54:11;3.53;;;0.60;;
69502;SDS011;56704;54.242;12.442;2022-07-04T11:56:39;5.27;;;0.60;;
69502;SDS011;56704;54.242;12.442;2022-07-04T11:59:09;2.95;;;0.43;;
69502;SDS011;56704;54.242;12.442;2022-07-04T12:01:38;1.73;;;0.50;;
69502;SDS011;56704;54.242;12.442;2022-07-04T12:04:11;2.08;;;0.38;;
69502;SDS011;56704;54.242;12.442;2022-07-04T12:06:40;0.90;;;0.30;;
69502;SDS011;56704;54.242;12.442;2022-07-04T12:09:06;1.80;;;0.40;;
69502;SDS011;56704;54.242;12.442;2022-07-04T12:11:55;2.05;;;0.70;;
69502;SDS011;56704;54.242;12.442;2022-07-04T12:14:23;2.25;;;0.60;;
69502;SDS011;56704;54.242;12.442;2022-07-04T12:16:49;2.65;;;0.60;;
69502;SDS011;56704;54.242;12.442;2022-07-04T12:19:35;3.70;;;0.82;;
69502;SDS011;56704;54.242;12.442;2022-07-04T12:22:01;1.10;;;0.30;;
69502;SDS011;56704;54.242;12.442;2022-07-04T12:24:36;2.67;;;0.50;;
69502;SDS011;56704;54.242;12.442;2022-07-04T12:27:07;3.75;;;0.50;;
69502;SDS011;56704;54.242;12.442;2022-07-04T12:29:45;1.20;;;0.40;;
69502;SDS011;56704;54.242;12.442;2022-07-04T12:32:13;1.35;;;0.40;;
69502;SDS011;56704;54.242;12.442;2022-07-04T12:34:39;1.73;;;0.40;;
69502;SDS011;56704;54.242;12.442;2022-07-04T12:37:06;2.25;;;0.50;;
69502;SDS011;56704;54.242;12.442;2022-07-04T12:39:35;1.23;;;0.40;;
69502;SDS011;56704;54.242;12.442;2022-07-04T12:42:05;1.58;;;0.38;;
69502;SDS011;56704;54.242;12.442;2022-07-04T12:44:37;2.03;;;0.43;;
69502;SDS011;56704;54.242;12.442;2022-07-04T12:47:09;1.20;;;0.30;;
69502;SDS011;56704;54.242;12.442;2022-07-04T12:49:36;3.05;;;0.50;;
69502;SDS011;56704;54.242;12.442;2022-07-04T12:52:07;2.60;;;0.50;;
69502;SDS011;56704;54.242;12.442;2022-07-04T12:54:35;1.73;;;0.43;;
69502;SDS011;56704;54.242;12.442;2022-07-04T12:57:07;2.80;;;0.50;;
69502;SDS011;56704;54.242;12.442;2022-07-04T12:59:37;1.13;;;0.40;;
69502;SDS011;56704;54.242;12.442;2022-07-04T13:02:04;1.38;;;0.40;;
69502;SDS011;56704;54.242;12.442;2022-07-04T13:04:31;3.75;;;0.70;;
69502;SDS011;56704;54.242;12.442;2022-07-04T13:06:59;2.83;;;0.50;;
69502;SDS011;56704;54.242;12.442;2022-07-04T13:09:26;2.42;;;0.60;;
69502;SDS011;56704;54.242;12.442;2022-07-04T13:11:53;1.30;;;0.30;;
69502;SDS011;56704;54.242;12.442;2022-07-04T13:14:39;2.00;;;0.60;;
69502;SDS011;56704;54.242;12.442;2022-07-04T13:17:06;1.25;;;0.50;;
69502;SDS011;56704;54.242;12.442;2022-07-04T13:19:32;4.68;;;0.70;;
69502;SDS011;56704;54.242;12.442;2022-07-04T13:21:59;2.90;;;0.63;;
69502;SDS011;56704;54.242;12.442;2022-07-04T13:24:25;1.67;;;0.67;;
69502;SDS011;56704;54.242;12.442;2022-07-04T13:26:52;1.50;;;0.88;;
69502;SDS011;56704;54.242;12.442;2022-07-04T13:29:19;2.00;;;1.20;;
69502;SDS011;56704;54.242;12.442;2022-07-04T13:31:48;2.53;;;1.27;;
69502;SDS011;56704;54.242;12.442;2022-07-04T13:34:15;2.00;;;1.10;;
69502;SDS011;56704;54.242;12.442;2022-07-04T13:36:42;3.80;;;1.10;;
69502;SDS011;56704;54.242;12.442;2022-07-04T13:39:08;4.25;;;1.30;;
69502;SDS011;56704;54.242;12.442;2022-07-04T13:41:36;2.90;;;1.40;;
69502;SDS011;56704;54.242;12.442;2022-07-04T13:44:03;3.22;;;1.20;;
69502;SDS011;56704;54.242;12.442;2022-07-04T13:46:31;4.32;;;1.25;;
69502;SDS011;56704;54.242;12.442;2022-07-04T13:49:01;2.20;;;1.07;;
69502;SDS011;56704;54.242;12.442;2022-07-04T13:51:28;3.08;;;1.55;;
69502;SDS011;56704;54.242;12.442;2022-07-04T13:53:55;4.35;;;1.25;;
69502;SDS011;56704;54.242;12.442;2022-07-04T13:56:21;2.42;;;0.98;;
69502;SDS011;56704;54.242;12.442;2022-07-04T13:58:48;2.85;;;0.90;;
69502;SDS011;56704;54.242;12.442;2022-07-04T14:01:14;3.93;;;1.10;;
69502;SDS011;56704;54.242;12.442;2022-07-04T14:03:43;4.18;;;1.20;;
69502;SDS011;56704;54.242;12.442;2022-07-04T14:06:11;3.33;;;1.23;;
69502;SDS011;56704;54.242;12.442;2022-07-04T14:08:38;5.00;;;1.30;;
69502;SDS011;56704;54.242;12.442;2022-07-04T14:11:04;2.67;;;1.30;;
69502;SDS011;56704;54.242;12.442;2022-07-04T14:13:31;2.67;;;1.20;;
69502;SDS011;56704;54.242;12.442;2022-07-04T14:15:57;2.42;;;1.52;;
69502;SDS011;56704;54.242;12.442;2022-07-04T14:18:25;2.40;;;1.25;;
69502;SDS011;56704;54.242;12.442;2022-07-04T14:20:51;2.55;;;1.05;;
69502;SDS011;56704;54.242;12.442;2022-07-04T14:23:19;2.38;;;1.23;;
69502;SDS011;56704;54.242;12.442;2022-07-04T14:26:00;2.83;;;1.20;;
69502;SDS011;56704;54.242;12.442;2022-07-04T14:28:26;1.98;;;1.10;;
69502;SDS011;56704;54.242;12.442;2022-07-04T14:30:53;2.63;;;1.42;;
69502;SDS011;56704;54.242;12.442;2022-07-04T14:33:19;4.22;;;1.08;;
69502;SDS011;56704;54.242;12.442;2022-07-04T14:35:46;1.90;;;0.95;;
69502;SDS011;56704;54.242;12.442;2022-07-04T14:38:12;1.50;;;0.60;;
69502;SDS011;56704;54.242;12.442;2022-07-04T14:40:40;2.00;;;0.80;;
69502;SDS011;56704;54.242;12.442;2022-07-04T14:43:10;3.65;;;0.90;;
69502;SDS011;56704;54.242;12.442;2022-07-04T14:45:36;2.83;;;1.00;;
69502;SDS011;56704;54.242;12.442;2022-07-04T14:48:03;1.50;;;0.80;;
69502;SDS011;56704;54.242;12.442;2022-07-04T14:50:31;2.43;;;0.80;;
69502;SDS011;56704;54.242;12.442;2022-07-04T14:52:58;1.58;;;0.77;;
69502;SDS011;56704;54.242;12.442;2022-07-04T14:55:24;3.22;;;1.00;;